sensor_id;sensor_type;location;lat;lon;timestamp;P1;durP1;ratioP1;P2;durP2;ratioP2
34828;SDS011;21042;47.620;12.188;2022-08-21T00:02:01;11.32;;;6.45;;
34828;SDS011;21042;47.620;12.188;2022-08-21T00:04:28;8.38;;;4.38;;
34828;SDS011;21042;47.620;12.188;2022-08-21T00:09:23;5.45;;;2.78;;
34828;SDS011;21042;47.620;12.188;2022-08-21T00:11:49;4.00;;;2.50;;
34828;SDS011;21042;47.620;12.188;2022-08-21T00:14:16;5.15;;;2.53;;
34828;SDS011;21042;47.620;12.188;2022-08-21T00:16:43;5.35;;;2.78;;
34828;SDS011;21042;47.620;12.188;2022-08-21T00:19:10;4.35;;;2.67;;
34828;SDS011;21042;47.620;12.188;2022-08-21T00:21:37;6.40;;;3.03;;
34828;SDS011;21042;47.620;12.188;2022-08-21T00:24:04;6.47;;;2.15;;
34828;SDS011;21042;47.620;12.188;2022-08-21T00:26:32;3.80;;;2.90;;
34828;SDS011;21042;47.620;12.188;2022-08-21T00:31:26;5.03;;;2.20;;
34828;SDS011;21042;47.620;12.188;2022-08-21T00:33:53;5.72;;;2.72;;
34828;SDS011;21042;47.620;12.188;2022-08-21T00:36:26;6.10;;;2.97;;
34828;SDS011;21042;47.620;12.188;2022-08-21T00:38:53;5.05;;;3.45;;
34828;SDS011;21042;47.620;12.188;2022-08-21T00:41:20;4.97;;;3.10;;
34828;SDS011;21042;47.620;12.188;2022-08-21T00:44:04;5.95;;;3.45;;
34828;SDS011;21042;47.620;12.188;2022-08-21T00:46:33;5.20;;;3.47;;
34828;SDS011;21042;47.620;12.188;2022-08-21T00:49:02;5.40;;;3.55;;
34828;SDS011;21042;47.620;12.188;2022-08-21T00:51:50;8.52;;;3.30;;
34828;SDS011;21042;47.620;12.188;2022-08-21T00:54:22;10.13;;;4.05;;
34828;SDS011;21042;47.620;12.188;2022-08-21T00:56:54;5.32;;;3.40;;
34828;SDS011;21042;47.620;12.188;2022-08-21T00:59:26;5.07;;;3.40;;
34828;SDS011;21042;47.620;12.188;2022-08-21T01:01:55;4.40;;;2.75;;
34828;SDS011;21042;47.620;12.188;2022-08-21T01:04:22;5.38;;;3.28;;
34828;SDS011;21042;47.620;12.188;2022-08-21T01:06:49;6.88;;;3.88;;
34828;SDS011;21042;47.620;12.188;2022-08-21T01:09:17;5.97;;;3.67;;
34828;SDS011;21042;47.620;12.188;2022-08-21T01:11:45;7.22;;;4.97;;
34828;SDS011;21042;47.620;12.188;2022-08-21T01:14:12;10.30;;;5.18;;
34828;SDS011;21042;47.620;12.188;2022-08-21T01:16:41;6.43;;;3.75;;
34828;SDS011;21042;47.620;12.188;2022-08-21T01:19:12;7.07;;;4.78;;
34828;SDS011;21042;47.620;12.188;2022-08-21T01:21:40;7.00;;;4.13;;
34828;SDS011;21042;47.620;12.188;2022-08-21T01:24:09;6.65;;;4.55;;
34828;SDS011;21042;47.620;12.188;2022-08-21T01:26:36;6.45;;;4.20;;
34828;SDS011;21042;47.620;12.188;2022-08-21T01:29:48;5.68;;;3.45;;
34828;SDS011;21042;47.620;12.188;2022-08-21T01:31:57;5.88;;;3.35;;
34828;SDS011;21042;47.620;12.188;2022-08-21T01:34:24;10.55;;;4.57;;
34828;SDS011;21042;47.620;12.188;2022-08-21T01:36:51;6.60;;;3.80;;
34828;SDS011;21042;47.620;12.188;2022-08-21T01:39:18;6.90;;;4.43;;
34828;SDS011;21042;47.620;12.188;2022-08-21T01:41:45;9.52;;;4.43;;
34828;SDS011;21042;47.620;12.188;2022-08-21T01:44:12;6.70;;;4.60;;
34828;SDS011;21042;47.620;12.188;2022-08-21T01:46:39;6.45;;;4.78;;
34828;SDS011;21042;47.620;12.188;2022-08-21T01:49:06;6.93;;;4.68;;
34828;SDS011;21042;47.620;12.188;2022-08-21T01:51:33;8.57;;;5.07;;
34828;SDS011;21042;47.620;12.188;2022-08-21T01:54:00;7.00;;;4.88;;
34828;SDS011;21042;47.620;12.188;2022-08-21T01:56:26;8.88;;;5.53;;
34828;SDS011;21042;47.620;12.188;2022-08-21T01:58:54;7.45;;;4.47;;
34828;SDS011;21042;47.620;12.188;2022-08-21T02:01:21;7.95;;;4.97;;
34828;SDS011;21042;47.620;12.188;2022-08-21T02:03:48;6.63;;;4.95;;
34828;SDS011;21042;47.620;12.188;2022-08-21T02:06:15;8.98;;;5.00;;
34828;SDS011;21042;47.620;12.188;2022-08-21T02:08:44;5.30;;;4.13;;
34828;SDS011;21042;47.620;12.188;2022-08-21T02:11:12;6.82;;;3.75;;
34828;SDS011;21042;47.620;12.188;2022-08-21T02:13:39;5.80;;;3.63;;
34828;SDS011;21042;47.620;12.188;2022-08-21T02:16:06;6.00;;;3.85;;
34828;SDS011;21042;47.620;12.188;2022-08-21T02:18:34;4.82;;;3.70;;
34828;SDS011;21042;47.620;12.188;2022-08-21T02:23:28;5.60;;;3.80;;
34828;SDS011;21042;47.620;12.188;2022-08-21T02:25:56;4.50;;;3.58;;
34828;SDS011;21042;47.620;12.188;2022-08-21T02:28:24;8.07;;;4.25;;
34828;SDS011;21042;47.620;12.188;2022-08-21T02:30:53;5.30;;;3.47;;
34828;SDS011;21042;47.620;12.188;2022-08-21T02:33:22;5.25;;;3.28;;
34828;SDS011;21042;47.620;12.188;2022-08-21T02:35:50;8.48;;;4.18;;
34828;SDS011;21042;47.620;12.188;2022-08-21T02:38:19;5.22;;;3.05;;
34828;SDS011;21042;47.620;12.188;2022-08-21T02:40:49;5.03;;;2.97;;
34828;SDS011;21042;47.620;12.188;2022-08-21T02:43:17;4.13;;;3.17;;
34828;SDS011;21042;47.620;12.188;2022-08-21T02:45:46;5.25;;;3.40;;
34828;SDS011;21042;47.620;12.188;2022-08-21T02:48:20;4.95;;;3.28;;
34828;SDS011;21042;47.620;12.188;2022-08-21T02:51:00;5.97;;;3.10;;
34828;SDS011;21042;47.620;12.188;2022-08-21T02:53:32;3.92;;;3.13;;
34828;SDS011;21042;47.620;12.188;2022-08-21T02:56:00;4.85;;;3.83;;
34828;SDS011;21042;47.620;12.188;2022-08-21T02:58:31;5.72;;;4.03;;
34828;SDS011;21042;47.620;12.188;2022-08-21T03:01:09;5.47;;;3.58;;
34828;SDS011;21042;47.620;12.188;2022-08-21T03:03:37;5.40;;;4.05;;
34828;SDS011;21042;47.620;12.188;2022-08-21T03:06:46;4.88;;;3.50;;
34828;SDS011;21042;47.620;12.188;2022-08-21T03:09:12;4.53;;;3.55;;
34828;SDS011;21042;47.620;12.188;2022-08-21T03:11:39;5.15;;;3.38;;
34828;SDS011;21042;47.620;12.188;2022-08-21T03:14:06;5.13;;;3.95;;
34828;SDS011;21042;47.620;12.188;2022-08-21T03:16:32;5.05;;;2.78;;
34828;SDS011;21042;47.620;12.188;2022-08-21T03:19:00;7.85;;;2.83;;
34828;SDS011;21042;47.620;12.188;2022-08-21T03:21:28;4.07;;;3.20;;
34828;SDS011;21042;47.620;12.188;2022-08-21T03:23:55;5.40;;;3.13;;
34828;SDS011;21042;47.620;12.188;2022-08-21T03:26:22;4.10;;;3.05;;
34828;SDS011;21042;47.620;12.188;2022-08-21T03:28:48;3.33;;;2.65;;
34828;SDS011;21042;47.620;12.188;2022-08-21T03:31:16;2.45;;;2.10;;
34828;SDS011;21042;47.620;12.188;2022-08-21T03:33:43;1.85;;;1.65;;
34828;SDS011;21042;47.620;12.188;2022-08-21T03:36:11;2.25;;;1.83;;
34828;SDS011;21042;47.620;12.188;2022-08-21T03:38:38;4.22;;;2.13;;
34828;SDS011;21042;47.620;12.188;2022-08-21T03:41:06;3.53;;;2.03;;
34828;SDS011;21042;47.620;12.188;2022-08-21T03:43:33;3.03;;;2.00;;
34828;SDS011;21042;47.620;12.188;2022-08-21T03:46:01;3.42;;;1.95;;
34828;SDS011;21042;47.620;12.188;2022-08-21T03:48:29;3.45;;;1.48;;
34828;SDS011;21042;47.620;12.188;2022-08-21T03:50:56;2.20;;;1.80;;
34828;SDS011;21042;47.620;12.188;2022-08-21T03:53:24;2.20;;;1.52;;
34828;SDS011;21042;47.620;12.188;2022-08-21T03:55:51;2.88;;;1.67;;
34828;SDS011;21042;47.620;12.188;2022-08-21T03:58:25;3.28;;;2.05;;
34828;SDS011;21042;47.620;12.188;2022-08-21T04:00:54;5.75;;;3.60;;
34828;SDS011;21042;47.620;12.188;2022-08-21T04:03:23;9.00;;;4.30;;
34828;SDS011;21042;47.620;12.188;2022-08-21T04:05:50;6.10;;;4.35;;
34828;SDS011;21042;47.620;12.188;2022-08-21T04:08:17;4.25;;;2.97;;
34828;SDS011;21042;47.620;12.188;2022-08-21T04:13:13;4.72;;;3.25;;
34828;SDS011;21042;47.620;12.188;2022-08-21T04:15:41;3.53;;;2.60;;
34828;SDS011;21042;47.620;12.188;2022-08-21T04:18:08;3.67;;;2.95;;
34828;SDS011;21042;47.620;12.188;2022-08-21T04:20:34;4.32;;;3.00;;
34828;SDS011;21042;47.620;12.188;2022-08-21T04:23:01;3.97;;;2.70;;
34828;SDS011;21042;47.620;12.188;2022-08-21T04:25:29;4.95;;;3.13;;
34828;SDS011;21042;47.620;12.188;2022-08-21T04:27:56;5.38;;;3.50;;
34828;SDS011;21042;47.620;12.188;2022-08-21T04:30:23;2.30;;;2.10;;
34828;SDS011;21042;47.620;12.188;2022-08-21T04:32:54;3.85;;;2.42;;
34828;SDS011;21042;47.620;12.188;2022-08-21T04:35:24;8.18;;;4.40;;
34828;SDS011;21042;47.620;12.188;2022-08-21T04:37:52;5.45;;;3.95;;
34828;SDS011;21042;47.620;12.188;2022-08-21T04:40:21;4.70;;;3.30;;
34828;SDS011;21042;47.620;12.188;2022-08-21T04:42:54;3.65;;;2.83;;
34828;SDS011;21042;47.620;12.188;2022-08-21T04:45:27;2.80;;;2.05;;
34828;SDS011;21042;47.620;12.188;2022-08-21T04:48:01;5.15;;;2.45;;
34828;SDS011;21042;47.620;12.188;2022-08-21T04:50:37;7.10;;;2.35;;
34828;SDS011;21042;47.620;12.188;2022-08-21T04:53:18;3.90;;;1.88;;
34828;SDS011;21042;47.620;12.188;2022-08-21T04:55:50;2.78;;;2.38;;
34828;SDS011;21042;47.620;12.188;2022-08-21T04:58:20;2.05;;;1.85;;
34828;SDS011;21042;47.620;12.188;2022-08-21T05:00:48;2.13;;;1.73;;
34828;SDS011;21042;47.620;12.188;2022-08-21T05:03:18;1.70;;;1.60;;
34828;SDS011;21042;47.620;12.188;2022-08-21T05:05:45;3.25;;;2.25;;
34828;SDS011;21042;47.620;12.188;2022-08-21T05:08:12;4.47;;;1.80;;
34828;SDS011;21042;47.620;12.188;2022-08-21T05:10:42;2.03;;;1.80;;
34828;SDS011;21042;47.620;12.188;2022-08-21T05:13:11;2.05;;;1.67;;
34828;SDS011;21042;47.620;12.188;2022-08-21T05:15:39;3.53;;;1.75;;
34828;SDS011;21042;47.620;12.188;2022-08-21T05:18:06;4.18;;;2.47;;
34828;SDS011;21042;47.620;12.188;2022-08-21T05:20:33;3.08;;;2.55;;
34828;SDS011;21042;47.620;12.188;2022-08-21T05:23:01;2.33;;;1.70;;
34828;SDS011;21042;47.620;12.188;2022-08-21T05:25:33;2.83;;;1.65;;
34828;SDS011;21042;47.620;12.188;2022-08-21T05:30:27;2.25;;;1.35;;
34828;SDS011;21042;47.620;12.188;2022-08-21T05:32:58;2.00;;;1.80;;
34828;SDS011;21042;47.620;12.188;2022-08-21T05:35:27;1.70;;;1.60;;
34828;SDS011;21042;47.620;12.188;2022-08-21T05:37:54;3.95;;;1.90;;
34828;SDS011;21042;47.620;12.188;2022-08-21T05:40:22;2.55;;;1.65;;
34828;SDS011;21042;47.620;12.188;2022-08-21T05:42:49;2.63;;;1.98;;
34828;SDS011;21042;47.620;12.188;2022-08-21T05:45:21;3.35;;;1.90;;
34828;SDS011;21042;47.620;12.188;2022-08-21T05:48:15;2.22;;;1.70;;
34828;SDS011;21042;47.620;12.188;2022-08-21T05:50:45;2.30;;;1.95;;
34828;SDS011;21042;47.620;12.188;2022-08-21T05:53:13;4.10;;;2.10;;
34828;SDS011;21042;47.620;12.188;2022-08-21T05:55:42;3.53;;;1.83;;
34828;SDS011;21042;47.620;12.188;2022-08-21T05:58:12;5.22;;;2.10;;
34828;SDS011;21042;47.620;12.188;2022-08-21T06:00:40;2.90;;;2.10;;
34828;SDS011;21042;47.620;12.188;2022-08-21T06:03:41;2.80;;;2.03;;
34828;SDS011;21042;47.620;12.188;2022-08-21T06:06:02;4.32;;;2.10;;
34828;SDS011;21042;47.620;12.188;2022-08-21T06:08:29;3.53;;;2.25;;
34828;SDS011;21042;47.620;12.188;2022-08-21T06:10:57;5.75;;;2.38;;
34828;SDS011;21042;47.620;12.188;2022-08-21T06:13:26;5.03;;;2.60;;
34828;SDS011;21042;47.620;12.188;2022-08-21T06:18:34;2.50;;;2.00;;
34828;SDS011;21042;47.620;12.188;2022-08-21T06:21:02;2.67;;;2.10;;
34828;SDS011;21042;47.620;12.188;2022-08-21T06:23:29;5.55;;;2.90;;
34828;SDS011;21042;47.620;12.188;2022-08-21T06:25:58;6.38;;;3.40;;
34828;SDS011;21042;47.620;12.188;2022-08-21T06:28:25;4.72;;;3.03;;
34828;SDS011;21042;47.620;12.188;2022-08-21T06:30:52;4.22;;;2.20;;
34828;SDS011;21042;47.620;12.188;2022-08-21T06:33:19;5.05;;;2.42;;
34828;SDS011;21042;47.620;12.188;2022-08-21T06:35:46;2.63;;;2.25;;
34828;SDS011;21042;47.620;12.188;2022-08-21T06:38:13;3.97;;;2.75;;
34828;SDS011;21042;47.620;12.188;2022-08-21T06:40:40;3.17;;;2.50;;
34828;SDS011;21042;47.620;12.188;2022-08-21T06:43:13;3.33;;;2.13;;
34828;SDS011;21042;47.620;12.188;2022-08-21T06:45:42;4.40;;;2.90;;
34828;SDS011;21042;47.620;12.188;2022-08-21T06:50:40;2.88;;;2.53;;
34828;SDS011;21042;47.620;12.188;2022-08-21T06:53:09;3.78;;;2.85;;
34828;SDS011;21042;47.620;12.188;2022-08-21T06:55:38;2.80;;;2.42;;
34828;SDS011;21042;47.620;12.188;2022-08-21T06:58:06;5.40;;;2.50;;
34828;SDS011;21042;47.620;12.188;2022-08-21T07:00:33;3.70;;;2.38;;
34828;SDS011;21042;47.620;12.188;2022-08-21T07:03:01;3.58;;;2.50;;
34828;SDS011;21042;47.620;12.188;2022-08-21T07:05:29;2.95;;;2.55;;
34828;SDS011;21042;47.620;12.188;2022-08-21T07:07:56;4.35;;;2.88;;
34828;SDS011;21042;47.620;12.188;2022-08-21T07:10:26;5.40;;;2.80;;
34828;SDS011;21042;47.620;12.188;2022-08-21T07:12:53;2.78;;;2.33;;
34828;SDS011;21042;47.620;12.188;2022-08-21T07:15:27;3.92;;;3.08;;
34828;SDS011;21042;47.620;12.188;2022-08-21T07:17:58;4.18;;;2.63;;
34828;SDS011;21042;47.620;12.188;2022-08-21T07:20:25;4.50;;;3.17;;
34828;SDS011;21042;47.620;12.188;2022-08-21T07:22:53;4.88;;;3.17;;
34828;SDS011;21042;47.620;12.188;2022-08-21T07:25:20;3.42;;;2.97;;
34828;SDS011;21042;47.620;12.188;2022-08-21T07:27:47;4.13;;;3.08;;
34828;SDS011;21042;47.620;12.188;2022-08-21T07:30:14;2.70;;;2.50;;
34828;SDS011;21042;47.620;12.188;2022-08-21T07:32:41;4.03;;;2.75;;
34828;SDS011;21042;47.620;12.188;2022-08-21T07:35:07;3.05;;;2.63;;
34828;SDS011;21042;47.620;12.188;2022-08-21T07:37:34;2.97;;;2.63;;
34828;SDS011;21042;47.620;12.188;2022-08-21T07:40:01;3.40;;;2.30;;
34828;SDS011;21042;47.620;12.188;2022-08-21T07:42:29;4.68;;;2.60;;
34828;SDS011;21042;47.620;12.188;2022-08-21T07:44:56;3.53;;;2.97;;
34828;SDS011;21042;47.620;12.188;2022-08-21T07:47:22;3.22;;;2.65;;
34828;SDS011;21042;47.620;12.188;2022-08-21T07:50:07;2.95;;;2.40;;
34828;SDS011;21042;47.620;12.188;2022-08-21T07:52:35;4.43;;;2.17;;
34828;SDS011;21042;47.620;12.188;2022-08-21T07:55:03;3.38;;;2.20;;
34828;SDS011;21042;47.620;12.188;2022-08-21T07:57:32;2.60;;;2.40;;
34828;SDS011;21042;47.620;12.188;2022-08-21T07:59:59;3.63;;;2.58;;
34828;SDS011;21042;47.620;12.188;2022-08-21T08:02:26;2.55;;;2.35;;
34828;SDS011;21042;47.620;12.188;2022-08-21T08:05:06;4.50;;;2.83;;
34828;SDS011;21042;47.620;12.188;2022-08-21T08:07:35;3.35;;;2.47;;
34828;SDS011;21042;47.620;12.188;2022-08-21T08:10:02;3.55;;;2.40;;
34828;SDS011;21042;47.620;12.188;2022-08-21T08:12:30;2.30;;;2.10;;
34828;SDS011;21042;47.620;12.188;2022-08-21T08:14:57;5.35;;;2.42;;
34828;SDS011;21042;47.620;12.188;2022-08-21T08:17:25;3.55;;;2.25;;
34828;SDS011;21042;47.620;12.188;2022-08-21T08:19:53;2.50;;;2.30;;
34828;SDS011;21042;47.620;12.188;2022-08-21T08:22:21;2.58;;;2.10;;
34828;SDS011;21042;47.620;12.188;2022-08-21T08:24:51;4.10;;;2.13;;
34828;SDS011;21042;47.620;12.188;2022-08-21T08:27:18;2.85;;;2.13;;
34828;SDS011;21042;47.620;12.188;2022-08-21T08:29:46;2.53;;;1.85;;
34828;SDS011;21042;47.620;12.188;2022-08-21T08:32:13;3.00;;;2.20;;
34828;SDS011;21042;47.620;12.188;2022-08-21T08:34:40;2.83;;;2.53;;
34828;SDS011;21042;47.620;12.188;2022-08-21T08:37:08;3.95;;;2.08;;
34828;SDS011;21042;47.620;12.188;2022-08-21T08:39:36;5.78;;;2.20;;
34828;SDS011;21042;47.620;12.188;2022-08-21T08:42:05;2.08;;;1.88;;
34828;SDS011;21042;47.620;12.188;2022-08-21T08:45:00;2.28;;;1.95;;
34828;SDS011;21042;47.620;12.188;2022-08-21T08:47:31;2.83;;;1.92;;
34828;SDS011;21042;47.620;12.188;2022-08-21T08:52:34;2.53;;;1.90;;
34828;SDS011;21042;47.620;12.188;2022-08-21T08:55:04;3.45;;;2.85;;
34828;SDS011;21042;47.620;12.188;2022-08-21T08:57:35;4.03;;;1.73;;
34828;SDS011;21042;47.620;12.188;2022-08-21T09:00:08;2.53;;;1.80;;
34828;SDS011;21042;47.620;12.188;2022-08-21T09:02:43;7.57;;;2.00;;
34828;SDS011;21042;47.620;12.188;2022-08-21T09:05:47;3.63;;;2.28;;
34828;SDS011;21042;47.620;12.188;2022-08-21T09:11:08;7.25;;;2.38;;
34828;SDS011;21042;47.620;12.188;2022-08-21T09:19:53;1.60;;;1.50;;
34828;SDS011;21042;47.620;12.188;2022-08-21T09:25:08;1.75;;;1.60;;
34828;SDS011;21042;47.620;12.188;2022-08-21T09:27:58;2.50;;;1.55;;
34828;SDS011;21042;47.620;12.188;2022-08-21T09:30:27;2.15;;;1.52;;
34828;SDS011;21042;47.620;12.188;2022-08-21T09:32:55;3.15;;;1.90;;
34828;SDS011;21042;47.620;12.188;2022-08-21T09:35:23;2.00;;;1.85;;
34828;SDS011;21042;47.620;12.188;2022-08-21T09:38:00;1.73;;;1.48;;
34828;SDS011;21042;47.620;12.188;2022-08-21T09:40:45;2.08;;;1.80;;
34828;SDS011;21042;47.620;12.188;2022-08-21T09:45:43;2.25;;;1.70;;
34828;SDS011;21042;47.620;12.188;2022-08-21T09:48:12;1.63;;;1.52;;
34828;SDS011;21042;47.620;12.188;2022-08-21T09:50:51;3.15;;;1.70;;
34828;SDS011;21042;47.620;12.188;2022-08-21T09:53:20;3.85;;;1.80;;
34828;SDS011;21042;47.620;12.188;2022-08-21T09:55:51;2.75;;;1.60;;
34828;SDS011;21042;47.620;12.188;2022-08-21T09:58:40;3.13;;;1.70;;
34828;SDS011;21042;47.620;12.188;2022-08-21T10:01:12;2.78;;;1.90;;
34828;SDS011;21042;47.620;12.188;2022-08-21T10:03:48;2.30;;;1.63;;
34828;SDS011;21042;47.620;12.188;2022-08-21T10:06:28;2.67;;;1.50;;
34828;SDS011;21042;47.620;12.188;2022-08-21T10:09:09;1.67;;;1.52;;
34828;SDS011;21042;47.620;12.188;2022-08-21T10:11:51;3.38;;;2.00;;
34828;SDS011;21042;47.620;12.188;2022-08-21T10:17:39;2.38;;;1.33;;
34828;SDS011;21042;47.620;12.188;2022-08-21T10:28:44;1.90;;;1.27;;
34828;SDS011;21042;47.620;12.188;2022-08-21T10:34:14;1.55;;;1.30;;
34828;SDS011;21042;47.620;12.188;2022-08-21T10:36:57;1.92;;;1.10;;
34828;SDS011;21042;47.620;12.188;2022-08-21T10:39:37;2.60;;;1.30;;
34828;SDS011;21042;47.620;12.188;2022-08-21T10:44:57;2.10;;;1.17;;
34828;SDS011;21042;47.620;12.188;2022-08-21T10:47:47;4.45;;;1.38;;
34828;SDS011;21042;47.620;12.188;2022-08-21T10:50:29;3.97;;;1.33;;
34828;SDS011;21042;47.620;12.188;2022-08-21T10:58:45;3.05;;;1.40;;
34828;SDS011;21042;47.620;12.188;2022-08-21T11:01:19;2.35;;;1.35;;
34828;SDS011;21042;47.620;12.188;2022-08-21T11:04:04;2.55;;;1.30;;
34828;SDS011;21042;47.620;12.188;2022-08-21T11:06:39;2.17;;;1.20;;
34828;SDS011;21042;47.620;12.188;2022-08-21T11:09:14;2.80;;;1.48;;
34828;SDS011;21042;47.620;12.188;2022-08-21T11:11:50;1.23;;;1.10;;
34828;SDS011;21042;47.620;12.188;2022-08-21T11:18:09;1.80;;;1.38;;
34828;SDS011;21042;47.620;12.188;2022-08-21T11:20:50;3.60;;;1.60;;
34828;SDS011;21042;47.620;12.188;2022-08-21T11:23:25;3.65;;;1.40;;
34828;SDS011;21042;47.620;12.188;2022-08-21T11:26:05;5.70;;;1.52;;
34828;SDS011;21042;47.620;12.188;2022-08-21T11:28:42;1.30;;;1.15;;
34828;SDS011;21042;47.620;12.188;2022-08-21T11:37:11;3.50;;;1.50;;
34828;SDS011;21042;47.620;12.188;2022-08-21T11:42:57;2.60;;;1.30;;
34828;SDS011;21042;47.620;12.188;2022-08-21T11:45:50;3.33;;;2.05;;
34828;SDS011;21042;47.620;12.188;2022-08-21T11:51:31;1.85;;;1.23;;
34828;SDS011;21042;47.620;12.188;2022-08-21T11:56:59;3.47;;;1.35;;
34828;SDS011;21042;47.620;12.188;2022-08-21T11:59:32;3.28;;;1.55;;
34828;SDS011;21042;47.620;12.188;2022-08-21T12:02:14;2.05;;;1.30;;
34828;SDS011;21042;47.620;12.188;2022-08-21T12:04:48;2.72;;;1.70;;
34828;SDS011;21042;47.620;12.188;2022-08-21T12:07:33;2.88;;;1.48;;
34828;SDS011;21042;47.620;12.188;2022-08-21T12:10:00;3.90;;;1.42;;
34828;SDS011;21042;47.620;12.188;2022-08-21T12:12:31;3.28;;;1.55;;
34828;SDS011;21042;47.620;12.188;2022-08-21T12:15:13;2.35;;;1.92;;
34828;SDS011;21042;47.620;12.188;2022-08-21T12:18:03;2.78;;;1.33;;
34828;SDS011;21042;47.620;12.188;2022-08-21T12:20:41;4.68;;;1.77;;
34828;SDS011;21042;47.620;12.188;2022-08-21T12:23:17;4.40;;;1.30;;
34828;SDS011;21042;47.620;12.188;2022-08-21T12:26:01;3.22;;;1.50;;
34828;SDS011;21042;47.620;12.188;2022-08-21T12:28:43;1.38;;;1.20;;
34828;SDS011;21042;47.620;12.188;2022-08-21T12:33:47;3.67;;;1.60;;
34828;SDS011;21042;47.620;12.188;2022-08-21T12:36:21;1.60;;;1.33;;
34828;SDS011;21042;47.620;12.188;2022-08-21T12:38:56;2.00;;;1.65;;
34828;SDS011;21042;47.620;12.188;2022-08-21T12:41:28;1.92;;;1.50;;
34828;SDS011;21042;47.620;12.188;2022-08-21T12:44:01;1.75;;;1.30;;
34828;SDS011;21042;47.620;12.188;2022-08-21T12:46:39;4.10;;;1.50;;
34828;SDS011;21042;47.620;12.188;2022-08-21T12:49:13;3.63;;;1.83;;
34828;SDS011;21042;47.620;12.188;2022-08-21T12:54:31;1.73;;;1.42;;
34828;SDS011;21042;47.620;12.188;2022-08-21T12:57:04;5.65;;;1.77;;
34828;SDS011;21042;47.620;12.188;2022-08-21T12:59:32;7.40;;;1.52;;
34828;SDS011;21042;47.620;12.188;2022-08-21T13:02:08;2.60;;;1.40;;
34828;SDS011;21042;47.620;12.188;2022-08-21T13:04:43;2.20;;;1.58;;
34828;SDS011;21042;47.620;12.188;2022-08-21T13:07:12;2.75;;;1.50;;
34828;SDS011;21042;47.620;12.188;2022-08-21T13:09:48;2.60;;;1.55;;
34828;SDS011;21042;47.620;12.188;2022-08-21T13:12:17;3.88;;;1.65;;
34828;SDS011;21042;47.620;12.188;2022-08-21T13:14:47;4.00;;;1.50;;
34828;SDS011;21042;47.620;12.188;2022-08-21T13:17:17;3.17;;;1.80;;
34828;SDS011;21042;47.620;12.188;2022-08-21T13:19:58;6.18;;;1.70;;
34828;SDS011;21042;47.620;12.188;2022-08-21T13:22:28;2.97;;;1.60;;
34828;SDS011;21042;47.620;12.188;2022-08-21T13:25:00;2.63;;;1.83;;
34828;SDS011;21042;47.620;12.188;2022-08-21T13:27:32;3.15;;;1.40;;
34828;SDS011;21042;47.620;12.188;2022-08-21T13:32:41;3.95;;;1.58;;
34828;SDS011;21042;47.620;12.188;2022-08-21T13:35:11;2.30;;;1.42;;
34828;SDS011;21042;47.620;12.188;2022-08-21T13:37:44;3.00;;;1.40;;
34828;SDS011;21042;47.620;12.188;2022-08-21T13:40:14;1.85;;;1.40;;
34828;SDS011;21042;47.620;12.188;2022-08-21T13:42:44;4.10;;;1.90;;
34828;SDS011;21042;47.620;12.188;2022-08-21T13:45:16;1.42;;;1.33;;
34828;SDS011;21042;47.620;12.188;2022-08-21T13:47:48;1.95;;;1.38;;
34828;SDS011;21042;47.620;12.188;2022-08-21T13:50:15;1.75;;;1.50;;
34828;SDS011;21042;47.620;12.188;2022-08-21T13:52:46;6.00;;;1.80;;
34828;SDS011;21042;47.620;12.188;2022-08-21T13:55:15;5.53;;;1.77;;
34828;SDS011;21042;47.620;12.188;2022-08-21T13:57:43;2.03;;;1.73;;
34828;SDS011;21042;47.620;12.188;2022-08-21T14:00:11;5.82;;;1.85;;
34828;SDS011;21042;47.620;12.188;2022-08-21T14:02:48;2.90;;;1.58;;
34828;SDS011;21042;47.620;12.188;2022-08-21T14:05:38;3.08;;;1.95;;
34828;SDS011;21042;47.620;12.188;2022-08-21T14:08:14;3.65;;;1.63;;
34828;SDS011;21042;47.620;12.188;2022-08-21T14:10:55;2.65;;;1.67;;
34828;SDS011;21042;47.620;12.188;2022-08-21T14:16:18;3.22;;;1.80;;
34828;SDS011;21042;47.620;12.188;2022-08-21T14:21:51;2.63;;;1.70;;
34828;SDS011;21042;47.620;12.188;2022-08-21T14:26:51;2.50;;;1.70;;
34828;SDS011;21042;47.620;12.188;2022-08-21T14:29:22;2.50;;;1.90;;
34828;SDS011;21042;47.620;12.188;2022-08-21T14:31:53;3.95;;;1.98;;
34828;SDS011;21042;47.620;12.188;2022-08-21T14:34:22;2.53;;;1.73;;
34828;SDS011;21042;47.620;12.188;2022-08-21T14:36:51;3.88;;;1.88;;
34828;SDS011;21042;47.620;12.188;2022-08-21T14:39:19;4.10;;;1.90;;
34828;SDS011;21042;47.620;12.188;2022-08-21T14:41:46;4.47;;;2.22;;
34828;SDS011;21042;47.620;12.188;2022-08-21T14:44:15;3.17;;;1.77;;
34828;SDS011;21042;47.620;12.188;2022-08-21T14:46:43;3.30;;;2.00;;
34828;SDS011;21042;47.620;12.188;2022-08-21T14:49:21;2.67;;;1.88;;
34828;SDS011;21042;47.620;12.188;2022-08-21T14:51:54;3.55;;;2.35;;
34828;SDS011;21042;47.620;12.188;2022-08-21T14:54:25;2.90;;;1.92;;
34828;SDS011;21042;47.620;12.188;2022-08-21T14:57:05;5.15;;;1.83;;
34828;SDS011;21042;47.620;12.188;2022-08-21T14:59:34;4.78;;;1.88;;
34828;SDS011;21042;47.620;12.188;2022-08-21T15:02:01;3.40;;;1.90;;
34828;SDS011;21042;47.620;12.188;2022-08-21T15:04:30;2.13;;;1.50;;
34828;SDS011;21042;47.620;12.188;2022-08-21T15:06:58;5.05;;;1.73;;
34828;SDS011;21042;47.620;12.188;2022-08-21T15:11:55;2.90;;;1.63;;
34828;SDS011;21042;47.620;12.188;2022-08-21T15:14:25;3.83;;;1.70;;
34828;SDS011;21042;47.620;12.188;2022-08-21T15:16:54;2.00;;;1.80;;
34828;SDS011;21042;47.620;12.188;2022-08-21T15:19:21;2.25;;;1.80;;
34828;SDS011;21042;47.620;12.188;2022-08-21T15:21:48;2.60;;;1.75;;
34828;SDS011;21042;47.620;12.188;2022-08-21T15:24:15;2.42;;;2.05;;
34828;SDS011;21042;47.620;12.188;2022-08-21T15:29:09;3.85;;;2.00;;
34828;SDS011;21042;47.620;12.188;2022-08-21T15:31:37;3.47;;;1.85;;
34828;SDS011;21042;47.620;12.188;2022-08-21T15:34:26;4.40;;;2.00;;
34828;SDS011;21042;47.620;12.188;2022-08-21T15:36:55;2.75;;;1.90;;
34828;SDS011;21042;47.620;12.188;2022-08-21T15:39:24;2.80;;;1.80;;
34828;SDS011;21042;47.620;12.188;2022-08-21T15:41:57;3.53;;;1.88;;
34828;SDS011;21042;47.620;12.188;2022-08-21T15:44:24;3.97;;;2.00;;
34828;SDS011;21042;47.620;12.188;2022-08-21T15:46:53;2.67;;;1.80;;
34828;SDS011;21042;47.620;12.188;2022-08-21T15:49:21;3.88;;;2.13;;
34828;SDS011;21042;47.620;12.188;2022-08-21T15:51:48;3.45;;;2.20;;
34828;SDS011;21042;47.620;12.188;2022-08-21T15:54:15;3.67;;;1.92;;
34828;SDS011;21042;47.620;12.188;2022-08-21T15:56:43;10.40;;;3.60;;
34828;SDS011;21042;47.620;12.188;2022-08-21T15:59:14;4.50;;;2.70;;
34828;SDS011;21042;47.620;12.188;2022-08-21T16:01:44;3.45;;;1.95;;
34828;SDS011;21042;47.620;12.188;2022-08-21T16:04:14;2.65;;;2.40;;
34828;SDS011;21042;47.620;12.188;2022-08-21T16:06:46;2.67;;;2.22;;
34828;SDS011;21042;47.620;12.188;2022-08-21T16:09:21;5.38;;;1.98;;
34828;SDS011;21042;47.620;12.188;2022-08-21T16:11:48;3.42;;;1.95;;
34828;SDS011;21042;47.620;12.188;2022-08-21T16:16:42;3.85;;;2.05;;
34828;SDS011;21042;47.620;12.188;2022-08-21T16:21:36;4.03;;;2.78;;
34828;SDS011;21042;47.620;12.188;2022-08-21T16:26:30;2.17;;;1.98;;
34828;SDS011;21042;47.620;12.188;2022-08-21T16:28:59;2.88;;;2.33;;
34828;SDS011;21042;47.620;12.188;2022-08-21T16:31:29;2.58;;;2.20;;
34828;SDS011;21042;47.620;12.188;2022-08-21T16:33:57;3.90;;;2.10;;
34828;SDS011;21042;47.620;12.188;2022-08-21T16:36:24;4.22;;;2.30;;
34828;SDS011;21042;47.620;12.188;2022-08-21T16:38:54;4.20;;;2.30;;
34828;SDS011;21042;47.620;12.188;2022-08-21T16:41:23;3.78;;;2.75;;